createdAt,value
2018-09-01T00:00:25.109Z,16.9
2018-09-01T00:01:15.434Z,16.9
2018-09-01T00:02:04.951Z,16.8
2018-09-01T00:02:55.246Z,16.8
2018-09-01T00:03:45.666Z,16.8
2018-09-01T00:04:35.424Z,16.8
2018-09-01T00:05:25.762Z,16.8
2018-09-01T00:06:15.568Z,16.7
2018-09-01T00:07:05.337Z,16.7
2018-09-01T00:07:55.717Z,16.7
2018-09-01T00:08:45.739Z,16.7
2018-09-01T00:09:36.333Z,16.6
2018-09-01T00:10:26.480Z,16.6
2018-09-01T00:11:16.842Z,16.6
2018-09-01T00:12:06.273Z,16.5
2018-09-01T00:31:30.423Z,16.8
2018-09-01T00:32:20.450Z,16.8
2018-09-01T00:33:10.237Z,16.8
2018-09-01T00:34:00.570Z,16.8
2018-09-01T00:34:50.677Z,16.6
2018-09-01T00:35:40.419Z,16.6
2018-09-01T00:36:30.444Z,16.6
2018-09-01T00:37:20.399Z,16.8
2018-09-01T00:38:10.334Z,16.7
2018-09-01T00:39:00.121Z,16.8
2018-09-01T00:39:51.063Z,16.8
2018-09-01T00:40:40.808Z,16.8
2018-09-01T00:41:31.404Z,16.8
2018-09-01T00:42:20.641Z,16.8
2018-09-01T00:43:11.261Z,16.8
2018-09-01T00:44:01.340Z,16.8
2018-09-01T00:44:50.846Z,16.7
2018-09-01T00:45:41.472Z,16.7
2018-09-01T00:46:31.541Z,16.7
2018-09-01T00:47:21.324Z,16.7
2018-09-01T00:48:11.909Z,16.7
2018-09-01T00:49:01.161Z,16.6
2018-09-01T00:49:51.792Z,16.7
2018-09-01T00:50:41.298Z,16.8
2018-09-01T00:51:31.640Z,16.8
2018-09-01T00:52:21.725Z,16.8
2018-09-01T00:53:12.095Z,16.8
2018-09-01T00:54:02.160Z,16.9
2018-09-01T00:55:42.254Z,17.1
2018-09-01T00:56:32.065Z,17.1
2018-09-01T00:59:52.043Z,17.1
2018-09-01T01:00:42.081Z,17.1
2018-09-01T01:01:32.707Z,17.1
2018-09-01T01:03:12.783Z,16.9
2018-09-01T01:04:02.617Z,16.9
2018-09-01T01:04:52.692Z,16.8
2018-09-01T01:05:42.750Z,16.8
2018-09-01T01:06:33.092Z,16.7
2018-09-01T01:07:22.880Z,16.6
2018-09-01T01:08:13.208Z,16.6
2018-09-01T01:09:03.272Z,16.6
2018-09-01T01:09:53.370Z,16.6
2018-09-01T01:10:43.160Z,16.6
2018-09-01T01:11:33.195Z,16.7
2018-09-01T01:12:23.574Z,16.7
2018-09-01T01:13:13.629Z,16.8
2018-09-01T01:14:03.404Z,16.7
2018-09-01T01:14:53.463Z,16.6
2018-09-01T01:15:43.539Z,16.6
2018-09-01T01:16:33.582Z,16.5
2018-09-01T01:17:24.006Z,16.4
2018-09-01T01:18:13.967Z,16.5
2018-09-01T01:19:03.522Z,16.4
2018-09-01T01:19:53.581Z,16.2
2018-09-01T01:20:43.926Z,16.1
2018-09-01T01:21:33.707Z,16.1
2018-09-01T01:22:24.064Z,16
2018-09-01T01:23:14.108Z,16.1
2018-09-01T01:24:04.223Z,16.1
2018-09-01T01:24:54.521Z,16
2018-09-01T01:25:44.574Z,15.9
2018-09-01T01:26:34.666Z,15.9
2018-09-01T01:27:24.713Z,16
2018-09-01T01:28:14.748Z,15.9
2018-09-01T01:29:04.868Z,16
2018-09-01T01:29:54.669Z,15.9
2018-09-01T01:30:44.708Z,16
2018-09-01T01:31:35.019Z,15.9
2018-09-01T01:32:24.800Z,15.9
2018-09-01T01:33:14.598Z,15.8
2018-09-01T01:34:04.903Z,15.8
2018-09-01T01:34:55.013Z,15.6
2018-09-01T01:35:45.085Z,15.6
2018-09-01T01:36:34.843Z,15.6
2018-09-01T01:37:25.260Z,15.6
2018-09-01T01:38:15.274Z,15.6
2018-09-01T01:39:05.876Z,15.6
2018-09-01T01:39:55.403Z,15.5
2018-09-01T01:40:45.478Z,15.4
2018-09-01T01:41:35.262Z,15.3
2018-09-01T01:42:25.301Z,15.3
2018-09-01T01:43:15.372Z,15.3
2018-09-01T01:44:05.431Z,15.3
2018-09-01T01:44:55.494Z,15.3
2018-09-01T01:45:46.133Z,15.3
2018-09-01T01:46:35.928Z,15.4
2018-09-01T01:47:25.727Z,15.4
2018-09-01T01:48:16.293Z,15.4
2018-09-01T01:49:05.849Z,15.4
2018-09-01T01:49:56.180Z,15.4
2018-09-01T01:50:46.518Z,15.3
2018-09-01T01:51:36.593Z,15.3
2018-09-01T01:52:25.816Z,15.1
2018-09-01T01:53:16.433Z,15.1
2018-09-01T01:54:06.512Z,15.1
2018-09-01T01:54:56.839Z,15.3
2018-09-01T01:55:46.922Z,15.3
2018-09-01T01:56:36.685Z,15.3
2018-09-01T01:57:27.039Z,15.3
2018-09-01T01:58:16.258Z,15.3
2018-09-01T01:59:06.887Z,15.3
2018-09-01T01:59:56.653Z,15.3
2018-09-01T02:00:47.001Z,15.3
2018-09-01T02:01:37.099Z,15.3
2018-09-01T02:02:27.153Z,15.3
2018-09-01T02:03:17.512Z,15.1
2018-09-01T02:04:07.593Z,15.1
2018-09-01T02:04:56.772Z,15.1
2018-09-01T02:05:47.144Z,15.3
2018-09-01T02:06:37.765Z,15.3
2018-09-01T02:07:28.060Z,15.3
2018-09-01T02:08:17.596Z,15.3
2018-09-01T02:09:07.652Z,15.3
2018-09-01T02:09:57.722Z,15.3
2018-09-01T02:10:48.056Z,15.3
2018-09-01T02:11:38.133Z,15.3
2018-09-01T02:12:28.218Z,15.4
2018-09-01T02:13:17.715Z,15.4
2018-09-01T02:14:08.163Z,15.5
2018-09-01T02:14:58.403Z,15.4
2018-09-01T02:15:47.908Z,15.4
2018-09-01T02:16:37.970Z,15.4
2018-09-01T02:17:28.010Z,15.5
2018-09-01T02:18:18.088Z,15.6
2018-09-01T02:19:08.703Z,15.6
2018-09-01T02:19:58.502Z,15.7
2018-09-01T02:20:48.566Z,15.8
2018-09-01T02:21:39.150Z,15.8
2018-09-01T02:22:28.689Z,15.8
2018-09-01T02:23:19.031Z,15.7
2018-09-01T02:24:09.115Z,15.6
2018-09-01T02:24:58.885Z,15.6
2018-09-01T02:25:48.966Z,15.5
2018-09-01T02:26:39.307Z,15.4
2018-09-01T02:27:28.830Z,15.3
2018-09-01T02:28:19.500Z,15.2
2018-09-01T02:29:08.934Z,15.2
2018-09-01T02:29:59.272Z,15.2
2018-09-01T02:30:49.334Z,15.2
2018-09-01T02:31:39.699Z,15.1
2018-09-01T02:32:29.485Z,15.1
2018-09-01T02:33:19.553Z,15.1
2018-09-01T02:34:09.327Z,15.1
2018-09-01T02:34:59.890Z,15
2018-09-01T02:35:49.717Z,15
2018-09-01T02:36:39.872Z,14.9
2018-09-01T02:37:30.138Z,14.9
2018-09-01T02:38:19.645Z,14.9
2018-09-01T02:39:09.682Z,14.8
2018-09-01T02:40:00.329Z,14.9
2018-09-01T02:40:49.836Z,14.8
2018-09-01T02:41:39.925Z,14.8
2018-09-01T02:42:29.693Z,14.8
2018-09-01T02:43:20.618Z,14.8
2018-09-01T02:44:10.367Z,14.8
2018-09-01T02:45:00.719Z,14.8
2018-09-01T02:45:50.524Z,14.8
2018-09-01T02:46:40.868Z,14.9
2018-09-01T02:47:30.315Z,14.9
2018-09-01T02:48:20.696Z,14.9
2018-09-01T02:49:10.462Z,14.8
2018-09-01T02:50:01.097Z,14.8
2018-09-01T02:50:50.634Z,14.7
2018-09-01T02:51:40.924Z,14.7
2018-09-01T02:52:31.005Z,14.7
2018-09-01T02:53:21.108Z,14.8
2018-09-01T02:54:11.408Z,14.8
2018-09-01T02:55:01.227Z,14.7
2018-09-01T02:55:51.561Z,14.8
2018-09-01T02:56:41.038Z,14.9
2018-09-01T02:57:31.690Z,14.9
2018-09-01T02:58:21.183Z,14.9
2018-09-01T02:59:11.810Z,14.9
2018-09-01T03:00:01.918Z,14.9
2018-09-01T03:00:52.231Z,15
2018-09-01T03:01:41.731Z,15
2018-09-01T03:02:31.497Z,14.9
2018-09-01T03:03:21.286Z,15
2018-09-01T03:04:11.907Z,15
2018-09-01T03:05:02.241Z,14.9
2018-09-01T03:05:51.719Z,14.9
2018-09-01T03:06:42.385Z,14.9
2018-09-01T03:07:31.636Z,14.9
2018-09-01T03:08:22.340Z,15
2018-09-01T03:09:12.307Z,14.9
2018-09-01T03:10:02.650Z,14.9
2018-09-01T03:10:53.207Z,14.9
2018-09-01T03:11:42.776Z,14.9
2018-09-01T03:12:33.089Z,14.9
2018-09-01T03:13:22.622Z,14.8
2018-09-01T03:14:12.685Z,14.8
2018-09-01T03:15:02.757Z,14.8
2018-09-01T03:15:53.337Z,14.7
2018-09-01T03:16:42.896Z,14.7
2018-09-01T03:17:33.229Z,14.6
2018-09-01T03:18:23.009Z,14.6
2018-09-01T03:19:13.375Z,14.6
2018-09-01T03:20:03.455Z,14.5
2018-09-01T03:20:53.483Z,14.5
2018-09-01T03:21:43.272Z,14.5
2018-09-01T03:22:33.096Z,14.4
2018-09-01T03:23:23.684Z,14.5
2018-09-01T03:24:13.236Z,14.5
2018-09-01T03:25:03.258Z,14.5
2018-09-01T03:25:53.893Z,14.6
2018-09-01T03:26:43.405Z,14.6
2018-09-01T03:27:34.028Z,14.6
2018-09-01T03:28:24.051Z,14.6
2018-09-01T03:29:13.838Z,14.6
2018-09-01T03:30:03.676Z,14.6
2018-09-01T03:30:54.263Z,14.6
2018-09-01T03:31:43.765Z,14.6
2018-09-01T03:32:34.111Z,14.6
2018-09-01T03:33:24.166Z,14.6
2018-09-01T03:34:14.267Z,14.6
2018-09-01T03:35:04.598Z,14.5
2018-09-01T03:35:55.189Z,14.5
2018-09-01T03:36:44.405Z,14.4
2018-09-01T03:37:34.778Z,14.5
2018-09-01T03:38:24.840Z,14.5
2018-09-01T03:39:14.346Z,14.5
2018-09-01T03:40:04.981Z,14.6
2018-09-01T03:40:54.785Z,14.6
2018-09-01T03:41:45.100Z,14.6
2018-09-01T03:42:34.848Z,14.7
2018-09-01T03:43:24.367Z,14.7
2018-09-01T03:44:14.719Z,14.7
2018-09-01T03:45:05.053Z,14.7
2018-09-01T03:45:54.845Z,14.7
2018-09-01T03:46:45.478Z,14.7
2018-09-01T03:47:34.990Z,14.7
2018-09-01T03:48:25.328Z,14.7
2018-09-01T03:49:15.663Z,14.7
2018-09-01T03:50:05.491Z,14.8
2018-09-01T03:50:55.259Z,14.8
2018-09-01T03:51:45.877Z,14.8
2018-09-01T03:52:35.652Z,14.8
2018-09-01T03:53:26.001Z,14.8
2018-09-01T03:54:15.512Z,14.8
2018-09-01T03:55:05.869Z,14.9
2018-09-01T03:55:55.892Z,14.9
2018-09-01T03:56:46.034Z,14.9
2018-09-01T03:57:36.033Z,14.9
2018-09-01T03:58:26.374Z,14.8
2018-09-01T03:59:15.892Z,14.8
2018-09-01T04:00:06.236Z,14.8
2018-09-01T04:00:56.584Z,14.8
2018-09-01T04:01:46.633Z,14.7
2018-09-01T04:02:36.732Z,14.6
2018-09-01T04:03:26.754Z,14.6
2018-09-01T04:04:16.289Z,14.5
2018-09-01T04:05:06.907Z,14.5
2018-09-01T04:05:56.941Z,14.4
2018-09-01T04:06:47.004Z,14.4
2018-09-01T04:07:37.088Z,14.4
2018-09-01T04:08:27.211Z,14.4
2018-09-01T04:09:17.226Z,14.5
2018-09-01T04:10:07.272Z,14.5
2018-09-01T04:10:57.136Z,14.5
2018-09-01T04:11:47.126Z,14.4
2018-09-01T04:12:37.178Z,14.4
2018-09-01T04:13:26.981Z,14.4
2018-09-01T04:14:17.604Z,14.3
2018-09-01T04:15:07.369Z,14.3
2018-09-01T04:15:57.698Z,14.3
2018-09-01T04:16:47.501Z,14.3
2018-09-01T04:17:38.135Z,14.4
2018-09-01T04:18:27.362Z,14.4
2018-09-01T04:19:17.996Z,14.4
2018-09-01T04:20:08.061Z,14.4
2018-09-01T04:20:57.827Z,14.3
2018-09-01T04:21:47.873Z,14.3
2018-09-01T04:22:38.256Z,14.3
2018-09-01T04:23:28.043Z,14.2
2018-09-01T04:24:18.083Z,14.2
2018-09-01T04:25:08.434Z,14.2
2018-09-01T04:25:58.497Z,14.2
2018-09-01T04:26:48.593Z,14.2
2018-09-01T04:27:38.336Z,14.3
2018-09-01T04:28:28.952Z,14.4
2018-09-01T04:29:18.811Z,14.4
2018-09-01T04:30:08.555Z,14.4
2018-09-01T04:30:58.876Z,14.5
2018-09-01T04:31:48.922Z,14.5
2018-09-01T04:32:39.020Z,14.6
2018-09-01T04:33:29.027Z,14.6
2018-09-01T04:34:18.857Z,14.7
2018-09-01T04:35:09.193Z,14.8
2018-09-01T04:35:58.996Z,14.9
2018-09-01T04:36:49.330Z,14.9
2018-09-01T04:37:39.398Z,15
2018-09-01T04:38:29.159Z,15.1
2018-09-01T04:39:19.253Z,15.1
2018-09-01T04:40:09.295Z,15.2
2018-09-01T04:40:59.102Z,15.3
2018-09-01T04:41:49.995Z,15.3
2018-09-01T04:42:39.187Z,15.3
2018-09-01T05:00:16.716Z,16.2
2018-09-01T05:01:08.488Z,16.3
2018-09-01T05:01:57.167Z,16.3
2018-09-01T05:02:47.239Z,16.4
2018-09-01T05:03:36.498Z,16.4
2018-09-01T05:04:27.396Z,16.4
2018-09-01T05:05:16.260Z,16.6
2018-09-01T05:06:07.721Z,16.9
2018-09-01T05:07:47.322Z,17.1
2018-09-01T05:08:36.791Z,17.1
2018-09-01T05:09:27.754Z,17.3
2018-09-01T05:10:17.469Z,17.4
2018-09-01T05:11:08.146Z,17.3
2018-09-01T05:11:57.922Z,17.4
2018-09-01T05:12:47.677Z,17.4
2018-09-01T05:13:37.652Z,17.6
2018-09-01T05:14:28.389Z,17.7
2018-09-01T05:15:17.893Z,17.8
2018-09-01T05:16:07.717Z,17.8
2018-09-01T05:16:57.751Z,17.9
2018-09-01T05:17:48.345Z,17.9
2018-09-01T05:18:38.202Z,17.9
2018-09-01T05:19:28.751Z,17.9
2018-09-01T05:20:18.262Z,18.1
2018-09-01T05:21:08.050Z,18.2
2018-09-01T05:21:58.389Z,18.2
2018-09-01T05:22:48.735Z,18.3
2018-09-01T05:23:38.811Z,18.4
2018-09-01T05:24:28.911Z,18.4
2018-09-01T05:25:18.711Z,18.6
2018-09-01T05:26:59.072Z,18.8
2018-09-01T05:27:49.111Z,18.9
2018-09-01T05:28:38.920Z,18.9
2018-09-01T05:29:29.285Z,19.1
2018-09-01T05:30:19.065Z,19.1
2018-09-01T05:31:09.340Z,19.1
2018-09-01T05:31:59.183Z,18.9
2018-09-01T05:33:39.599Z,18.5
2018-09-01T05:34:29.153Z,18.4
2018-09-01T05:35:19.144Z,18.6
2018-09-01T05:36:59.873Z,18.8
2018-09-01T05:37:49.654Z,18.5
2018-09-01T05:38:39.719Z,18.4
2018-09-01T05:39:30.052Z,18.4
2018-09-01T05:40:19.552Z,18.3
2018-09-01T05:41:09.589Z,18.2
2018-09-01T05:42:00.187Z,18.3
2018-09-01T05:42:50.327Z,18.2
2018-09-01T05:43:40.336Z,18.3
2018-09-01T05:44:30.138Z,18.4
2018-09-01T05:45:20.494Z,18.5
2018-09-01T05:46:10.316Z,18.5
2018-09-01T05:47:00.604Z,18.6
2018-09-01T05:47:50.679Z,18.6
2018-09-01T05:48:40.221Z,18.6
2018-09-01T05:49:29.774Z,18.5
2018-09-01T05:50:20.970Z,18.3
2018-09-01T05:51:11.013Z,18.1
2018-09-01T05:52:01.328Z,18.1
2018-09-01T05:52:51.086Z,18.1
2018-09-01T05:53:40.862Z,18.1
2018-09-01T05:54:31.251Z,18.1
2018-09-01T05:55:20.726Z,18
2018-09-01T05:56:10.807Z,18.1
2018-09-01T05:57:01.101Z,18.2
2018-09-01T05:57:51.479Z,18.1
2018-09-01T05:58:40.955Z,18.1
2018-09-01T05:59:31.860Z,18.2
2018-09-01T06:00:21.180Z,18.3
2018-09-01T06:01:11.255Z,18.2
2018-09-01T06:02:02.075Z,18.3
2018-09-01T06:02:52.135Z,18.3
2018-09-01T06:03:41.095Z,18.3
2018-09-01T06:04:31.402Z,18.3
2018-09-01T06:05:22.036Z,18.2
2018-09-01T06:06:13.590Z,18.2
2018-09-01T06:07:02.184Z,18.2
2018-09-01T06:07:52.237Z,18.3
2018-09-01T06:08:42.309Z,18.4
2018-09-01T06:09:32.415Z,18.5
2018-09-01T06:10:22.127Z,18.6
2018-09-01T06:11:12.485Z,18.8
2018-09-01T06:12:02.241Z,18.9
2018-09-01T06:12:53.090Z,18.9
2018-09-01T06:13:42.412Z,19
2018-09-01T06:14:32.737Z,19.1
2018-09-01T06:15:22.534Z,19
2018-09-01T06:17:02.969Z,18.5
2018-09-01T06:17:53.485Z,18.5
2018-09-01T06:18:43.075Z,18.6
2018-09-01T06:20:22.918Z,18.6
2018-09-01T06:21:12.969Z,18.6
2018-09-01T06:22:03.336Z,18.8
2018-09-01T06:22:53.651Z,19.1
2018-09-01T06:23:43.471Z,19.3
2018-09-01T06:24:33.524Z,19.3
2018-09-01T06:25:23.347Z,19.3
2018-09-01T06:26:13.381Z,19.5
2018-09-01T06:27:03.462Z,19.6
2018-09-01T06:27:53.527Z,19.8
2018-09-01T06:28:43.547Z,19.9
2018-09-01T06:29:33.946Z,19.9
2018-09-01T06:30:24.029Z,20.2
2018-09-01T06:31:14.280Z,20.4
2018-09-01T06:32:04.120Z,20.6
2018-09-01T06:32:54.278Z,20.5
2018-09-01T06:33:44.518Z,20.3
2018-09-01T06:34:34.026Z,20.6
2018-09-01T06:35:24.109Z,20.9
2018-09-01T06:36:14.421Z,21
2018-09-01T06:37:54.578Z,21.3
2018-09-01T06:38:44.640Z,21.6
2018-09-01T06:39:34.757Z,21.4
2018-09-01T06:41:14.008Z,21.3
2018-09-01T06:42:04.152Z,21.4
2018-09-01T06:42:55.222Z,21.6
2018-09-01T06:43:44.978Z,21.9
2018-09-01T06:44:34.789Z,22.1
2018-09-01T06:45:25.085Z,22.1
2018-09-01T06:46:14.634Z,21.9
2018-09-01T06:47:05.244Z,21.9
2018-09-01T06:47:55.048Z,21.9
2018-09-01T06:48:45.100Z,21.8
2018-09-01T06:49:35.173Z,22.2
2018-09-01T06:50:25.470Z,22.4
2018-09-01T06:51:15.291Z,22.3
2018-09-01T06:52:05.652Z,22.5
2018-09-01T06:52:55.415Z,22.8
2018-09-01T06:53:46.052Z,22.9
2018-09-01T06:54:35.567Z,22.9
2018-09-01T06:55:25.325Z,23
2018-09-01T06:56:15.667Z,23.1
2018-09-01T06:57:06.051Z,22.4
2018-09-01T06:57:56.069Z,22.6
2018-09-01T06:58:46.142Z,22.5
2018-09-01T06:59:35.621Z,22.2
2018-09-01T07:00:25.730Z,22.4
2018-09-01T07:01:16.364Z,22.1
2018-09-01T07:02:06.151Z,22
2018-09-01T07:02:55.917Z,22.2
2018-09-01T07:03:46.520Z,22.5
2018-09-01T07:04:36.321Z,23
2018-09-01T07:05:26.105Z,23.3
2018-09-01T07:06:16.466Z,23.6
2018-09-01T07:07:06.807Z,23.4
2018-09-01T07:07:56.593Z,23.5
2018-09-01T07:08:47.833Z,23.6
2018-09-01T07:09:36.669Z,23.8
2018-09-01T07:10:26.563Z,23.5
2018-09-01T07:11:17.109Z,23.5
2018-09-01T07:12:06.620Z,23.6
2018-09-01T07:12:57.291Z,23.8
2018-09-01T07:13:47.373Z,23.8
2018-09-01T07:14:37.401Z,23.9
2018-09-01T07:15:27.148Z,23.9
2018-09-01T07:16:17.248Z,24.1
2018-09-01T07:17:07.301Z,24.2
2018-09-01T07:17:57.365Z,24.1
2018-09-01T07:18:47.450Z,24.4
2018-09-01T07:19:37.475Z,24.3
2018-09-01T07:20:28.079Z,24.3
2018-09-01T07:21:17.903Z,24.6
2018-09-01T07:22:07.715Z,24.5
2018-09-01T07:22:58.065Z,24.3
2018-09-01T07:23:47.818Z,24.1
2018-09-01T07:24:37.897Z,24.3
2018-09-01T07:25:28.470Z,24.4
2018-09-01T07:26:18.325Z,24.6
2018-09-01T07:27:08.099Z,24.5
2018-09-01T07:27:58.411Z,24.5
2018-09-01T07:28:48.484Z,24.3
2018-09-01T07:29:38.540Z,24.3
2018-09-01T07:30:29.830Z,24.7
2018-09-01T07:31:20.560Z,25.2
2018-09-01T07:32:09.029Z,25.2
2018-09-01T07:32:58.824Z,25.3
2018-09-01T07:33:48.967Z,25.4
2018-09-01T07:34:38.384Z,25.2
2018-09-01T07:35:29.091Z,25.3
2018-09-01T07:36:18.603Z,25.2
2018-09-01T07:37:09.151Z,25.2
2018-09-01T07:37:58.912Z,25.3
2018-09-01T07:38:49.289Z,25.4
2018-09-01T07:39:39.050Z,25.6
2018-09-01T07:40:29.386Z,25.5
2018-09-01T07:41:19.179Z,25.5
2018-09-01T07:42:09.542Z,25.3
2018-09-01T07:42:58.820Z,25.3
2018-09-01T07:43:48.620Z,25.1
2018-09-01T07:44:39.425Z,25.3
2018-09-01T07:45:29.514Z,25.4
2018-09-01T07:46:19.329Z,25.8
2018-09-01T07:47:09.481Z,25.9
2018-09-01T07:47:59.982Z,26.3
2018-09-01T07:48:50.054Z,26.6
2018-09-01T07:49:39.860Z,26.1
2018-09-01T07:50:30.192Z,25.8
2018-09-01T07:51:20.274Z,25.8
2018-09-01T07:52:10.046Z,26.1
2018-09-01T07:53:00.606Z,26.2
2018-09-01T07:53:49.883Z,26.4
2018-09-01T07:54:40.625Z,26.4
2018-09-01T07:55:30.559Z,26.5
2018-09-01T07:56:21.217Z,26.5
2018-09-01T07:57:10.480Z,26.3
2018-09-01T07:58:00.480Z,26.5
2018-09-01T07:58:50.060Z,26.3
2018-09-01T07:59:40.860Z,26.4
2018-09-01T08:00:30.938Z,26.4
2018-09-01T08:01:20.764Z,26.1
2018-09-01T08:02:10.825Z,26.4
2018-09-01T08:03:00.335Z,27.1
2018-09-01T08:03:51.496Z,26.8
2018-09-01T08:04:40.552Z,27.2
2018-09-01T08:05:31.367Z,27.1
2018-09-01T08:06:21.433Z,27.1
2018-09-01T08:07:11.456Z,27.2
2018-09-01T08:08:01.552Z,27.4
2018-09-01T08:08:51.061Z,27.3
2018-09-01T08:09:41.401Z,27.5
2018-09-01T08:10:31.452Z,27.4
2018-09-01T08:11:21.551Z,27.6
2018-09-01T08:12:11.627Z,27.9
2018-09-01T08:13:01.744Z,27.8
2018-09-01T08:13:53.152Z,27.4
2018-09-01T08:14:42.816Z,27.7
2018-09-01T08:16:23.854Z,27.9
2018-09-01T08:18:02.321Z,27.7
2018-09-01T08:19:42.716Z,27.6
2018-09-01T08:20:32.258Z,27.3
2018-09-01T08:21:22.347Z,27.3
2018-09-01T08:22:11.868Z,27.4
2018-09-01T08:23:02.423Z,27.7
2018-09-01T08:23:52.786Z,27.6
2018-09-01T08:24:42.599Z,28
2018-09-01T08:25:32.938Z,28.5
2018-09-01T08:26:22.712Z,28.9
2018-09-01T08:27:12.488Z,28.9
2018-09-01T08:28:03.140Z,28.8
2018-09-01T08:28:53.188Z,28.6
2018-09-01T08:29:42.675Z,28.8
2018-09-01T08:30:33.060Z,28.8
2018-09-01T08:31:22.798Z,28.9
2018-09-01T08:32:13.443Z,29.5
2018-09-01T08:33:03.217Z,29.6
2018-09-01T08:33:53.600Z,29.6
2018-09-01T08:34:43.628Z,29.4
2018-09-01T08:35:33.410Z,29.4
2018-09-01T08:36:23.195Z,29.1
2018-09-01T08:37:13.557Z,29
2018-09-01T08:38:03.887Z,28.6
2018-09-01T08:38:53.979Z,28.7
2018-09-01T08:39:43.442Z,28.5
2018-09-01T08:40:33.237Z,29.2
2018-09-01T08:41:24.144Z,29.3
2018-09-01T08:42:14.247Z,29.2
2018-09-01T08:43:04.028Z,29
2018-09-01T08:43:54.049Z,28.8
2018-09-01T08:44:44.202Z,28.9
2018-09-01T08:45:34.213Z,28.4
2018-09-01T08:46:24.005Z,28.3
2018-09-01T08:47:14.375Z,28.6
2018-09-01T08:48:04.409Z,28.1
2018-09-01T08:48:54.479Z,28.5
2018-09-01T08:49:44.817Z,29.3
2018-09-01T08:50:35.121Z,29.7
2018-09-01T08:51:24.936Z,29.4
2018-09-01T08:52:15.004Z,29.1
2018-09-01T08:53:04.784Z,28.9
2018-09-01T08:53:55.154Z,28.9
2018-09-01T08:54:44.382Z,28.7
2018-09-01T08:55:35.266Z,28.6
2018-09-01T08:56:24.947Z,28.3
2018-09-01T08:57:15.117Z,28.9
2018-09-01T08:58:05.471Z,28.6
2018-09-01T09:14:49.740Z,29.1
2018-09-01T09:16:28.513Z,29.4
2018-09-01T09:17:19.153Z,29.8
2018-09-01T09:18:09.178Z,30.5
2018-09-01T09:18:59.546Z,31.1
2018-09-01T09:19:49.277Z,31.4
2018-09-01T09:20:40.515Z,31.5
2018-09-01T09:21:30.013Z,31.7
2018-09-01T09:22:19.522Z,31.7
2018-09-01T09:23:24.907Z,31.5
2018-09-01T09:24:00.117Z,31.6
2018-09-01T09:24:49.740Z,31.8
2018-09-01T09:25:40.020Z,31.6
2018-09-01T09:26:30.278Z,31.3
2018-09-01T09:27:20.574Z,30.8
2018-09-01T09:28:09.409Z,30.3
2018-09-01T09:29:00.601Z,29.9
2018-09-01T09:30:04.994Z,30.7
2018-09-01T09:30:40.969Z,31.1
2018-09-01T09:31:30.422Z,30.6
2018-09-01T09:32:20.841Z,30.4
2018-09-01T09:33:10.376Z,30.8
2018-09-01T09:34:00.393Z,30.5
2018-09-01T09:35:05.591Z,30.3
2018-09-01T09:35:55.495Z,29.8
2018-09-01T09:36:46.007Z,29.8
2018-09-01T09:37:21.189Z,30.6
2018-09-01T09:38:11.091Z,30.9
2018-09-01T09:39:00.556Z,31.4
2018-09-01T09:39:51.395Z,31.8
2018-09-01T09:40:41.430Z,31.9
2018-09-01T09:41:31.156Z,31.4
2018-09-01T09:42:22.030Z,31.1
2018-09-01T09:43:11.146Z,30.8
2018-09-01T09:44:01.244Z,31.2
2018-09-01T09:44:51.538Z,31.4
2018-09-01T09:45:41.581Z,30.9
2018-09-01T09:46:46.305Z,30.4
2018-09-01T09:47:21.687Z,31.1
2018-09-01T09:48:26.511Z,31.6
2018-09-01T09:49:01.905Z,31.9
2018-09-01T09:49:51.685Z,31.9
2018-09-01T09:50:56.654Z,32.1
2018-09-01T09:51:31.800Z,31.6
2018-09-01T09:52:22.612Z,31.9
2018-09-01T09:53:12.353Z,32.2
2018-09-01T09:54:01.998Z,32.4
2018-09-01T09:54:52.326Z,31.8
2018-09-01T09:55:42.364Z,31.4
2018-09-01T09:56:33.135Z,31.1
2018-09-01T09:57:22.245Z,31.1
2018-09-01T09:59:02.400Z,31.5
2018-09-01T09:59:52.717Z,31.6
2018-09-01T10:00:42.726Z,31.3
2018-09-01T10:01:33.114Z,30.9
2018-09-01T10:02:22.870Z,31.1
2018-09-01T10:03:13.194Z,31.4
2018-09-01T10:04:02.809Z,31.9
2018-09-01T10:04:53.342Z,32.2
2018-09-01T10:05:43.383Z,32.4
2018-09-01T10:06:33.354Z,32.3
2018-09-01T10:07:23.536Z,31.8
2018-09-01T10:08:13.580Z,31.7
2018-09-01T10:09:03.497Z,32.6
2018-09-01T10:10:07.824Z,32.9
2018-09-01T10:10:43.304Z,32.9
2018-09-01T10:11:33.923Z,32.4
2018-09-01T10:12:23.736Z,32.2
2018-09-01T10:13:14.022Z,32.1
2018-09-01T10:14:03.861Z,32.1
2018-09-01T10:14:53.933Z,32.4
2018-09-01T10:15:44.556Z,31.9
2018-09-01T10:16:33.501Z,31.9
2018-09-01T10:17:24.386Z,31.6
2018-09-01T10:18:13.697Z,31.2
2018-09-01T10:19:03.979Z,31.3
2018-09-01T10:19:53.817Z,30.9
2018-09-01T10:20:44.578Z,31.6
2018-09-01T10:21:34.416Z,32.2
2018-09-01T10:22:24.486Z,32.8
2018-09-01T10:23:14.270Z,33.1
2018-09-01T10:24:18.998Z,33
2018-09-01T10:25:09.586Z,32.9
2018-09-01T10:25:44.746Z,32.8
2018-09-01T10:26:49.330Z,32.7
2018-09-01T10:27:24.601Z,32.3
2018-09-01T10:28:14.849Z,31.7
2018-09-01T10:29:55.360Z,31
2018-09-01T10:31:00.023Z,31
2018-09-01T10:31:35.697Z,31.8
2018-09-01T10:32:24.698Z,31.6
2018-09-01T10:33:15.120Z,31.4
2018-09-01T10:34:06.497Z,31
2018-09-01T10:34:55.261Z,31.4
2018-09-01T10:35:45.452Z,32.3
2018-09-01T10:36:35.814Z,31.9
2018-09-01T10:37:40.729Z,31.9
2018-09-01T10:38:30.726Z,31.1
2018-09-01T10:39:05.759Z,30.7
2018-09-01T10:39:55.927Z,30.4
2018-09-01T10:40:45.103Z,30.6
2018-09-01T10:41:35.710Z,30.4
2018-09-01T10:42:26.376Z,31.1
2018-09-01T10:43:17.405Z,31.5
2018-09-01T10:44:21.043Z,31.4
2018-09-01T10:44:56.253Z,30.8
2018-09-01T10:45:47.122Z,31.1
2018-09-01T10:46:36.371Z,31.4
2018-09-01T10:47:26.461Z,31.7
2018-09-01T10:48:31.167Z,31.9
2018-09-01T10:49:06.262Z,32
2018-09-01T10:49:56.920Z,31.8
2018-09-01T10:50:46.712Z,31.7
2018-09-01T10:51:51.442Z,31.6
2018-09-01T10:52:41.597Z,30.9
2018-09-01T10:53:16.915Z,31.1
2018-09-01T10:54:07.194Z,31.3
2018-09-01T10:54:57.285Z,31
2018-09-01T10:55:46.554Z,30.8
2018-09-01T10:56:36.897Z,31.1
2018-09-01T10:58:17.714Z,31.1
2018-09-01T10:59:08.854Z,31.4
2018-09-01T10:59:57.356Z,31.2
2018-09-01T11:00:47.458Z,32.2
2018-09-01T11:01:37.729Z,32.3
2018-09-01T11:02:59.160Z,32.8
2018-09-01T11:03:17.565Z,32.6
2018-09-01T11:04:23.121Z,32.7
2018-09-01T11:04:57.806Z,33.1
2018-09-01T11:05:47.930Z,32.8
2018-09-01T11:06:37.921Z,33
2018-09-01T11:07:28.167Z,32.9
2018-09-01T11:08:18.095Z,32.9
2018-09-01T11:09:22.469Z,33.3
2018-09-01T11:09:57.964Z,32.3
2018-09-01T11:10:48.361Z,31.8
2018-09-01T11:11:38.085Z,31.4
2018-09-01T11:12:28.127Z,31
2018-09-01T11:13:18.269Z,30.8
2018-09-01T11:14:08.728Z,30.9
2018-09-01T11:14:58.292Z,31.1
2018-09-01T11:15:48.455Z,31.7
2018-09-01T11:16:38.617Z,31.5
2018-09-01T11:17:28.609Z,31.3
2018-09-01T11:18:19.506Z,31.9
2018-09-01T11:19:09.428Z,32.5
2018-09-01T11:19:59.259Z,31.8
2018-09-01T11:21:04.524Z,31.1
2018-09-01T11:21:39.277Z,31
2018-09-01T11:22:29.684Z,31.4
2018-09-01T11:23:19.008Z,31.7
2018-09-01T11:24:13.945Z,32
2018-09-01T11:25:04.733Z,32
2018-09-01T11:25:54.251Z,31.8
2018-09-01T11:26:44.341Z,31.6
2018-09-01T11:27:35.248Z,32.3
2018-09-01T11:28:24.674Z,32.8
2018-09-01T11:29:14.451Z,32.9
2018-09-01T11:30:04.091Z,33.6
2018-09-01T11:30:53.608Z,33.5
2018-09-01T11:31:59.583Z,33.4
2018-09-01T11:32:34.003Z,33.3
2018-09-01T11:33:40.031Z,33.2
2018-09-01T11:34:14.938Z,32.2
2018-09-01T11:35:19.890Z,32.5
2018-09-01T11:35:54.749Z,32.9
2018-09-01T11:36:44.869Z,33.1
2018-09-01T11:37:35.113Z,32.5
2018-09-01T11:38:25.010Z,31.7
2018-09-01T11:39:15.510Z,31.6
2018-09-01T11:40:20.158Z,31.4
2018-09-01T11:40:55.046Z,30.9
2018-09-01T11:41:45.287Z,31.1
2018-09-01T11:42:35.580Z,31
2018-09-01T11:43:25.182Z,31.5
2018-09-01T11:44:15.202Z,31.6
2018-09-01T11:45:04.973Z,31.9
2018-09-01T11:46:09.950Z,32
2018-09-01T11:47:00.240Z,32.3
2018-09-01T11:47:35.498Z,32.3
2018-09-01T11:48:25.964Z,32.7
2018-09-01T11:49:15.997Z,33.4
2018-09-01T11:50:06.457Z,33.7
2018-09-01T11:50:56.713Z,32.9
2018-09-01T11:51:46.319Z,33.2
2018-09-01T11:52:36.557Z,33.1
2018-09-01T11:53:26.361Z,33.1
2018-09-01T11:54:30.922Z,33.1
2018-09-01T11:55:06.541Z,32.8
2018-09-01T11:55:56.092Z,32.8
2018-09-01T11:56:46.179Z,32.9
2018-09-01T11:57:36.247Z,32.6
2018-09-01T11:58:26.534Z,32.8
2018-09-01T11:59:31.281Z,33.2
2018-09-01T12:00:06.460Z,32.5
2018-09-01T12:01:11.675Z,32.6
2018-09-01T12:01:47.474Z,33.6
2018-09-01T12:02:37.554Z,33.7
2018-09-01T12:03:41.981Z,33.6
2018-09-01T12:04:31.726Z,33.4
2018-09-01T12:05:07.071Z,33.1
2018-09-01T12:05:56.913Z,33.1
2018-09-01T12:07:01.078Z,33.6
2018-09-01T12:07:37.032Z,33.8
2018-09-01T12:08:27.585Z,33.6
2018-09-01T12:09:32.400Z,31.9
2018-09-01T12:10:07.203Z,31.5
2018-09-01T12:10:57.516Z,31.4
2018-09-01T12:11:47.403Z,31.3
2018-09-01T12:12:37.919Z,31.4
2018-09-01T12:13:42.370Z,31.7
2018-09-01T12:14:17.270Z,31.4
2018-09-01T12:15:07.642Z,31.3
2018-09-01T12:15:58.880Z,31.5